»·PEaware :: FFT250 KSNA-KSFO

FFT250 :: KSNA-KSFO

FLIGHT INFORMATION

Flight Status: Arrived
Operator:
Frontier Airlines
More flights by this operator :: More flights under this callsign
Pilot: Andrew J. (13363)
Aircraft: AIRBUS A320
(A320)
More flights by this aircraft type
Origin: KSNA John Wayne-Orange Co
United States
Destination: KSFO San Francisco Intl
United States
More flights between these airports :: More routes between these airports
Route: +CHANL3 RZS STOKD SERFR SERFR2
File this flight plan on PilotEdge
Remarks:
Altitude:
(Current/Filed)
32,000ft
Speed:
(Current/Filed)
460kts
Departed: 31-Oct-17 03:23 PM
Arrived: 31-Oct-17 04:28 PM
Distance/Time
Traveled:
323nm/1:04
Distance/Time
To Go:
Arrived

Flight Plot

Page will automatically refresh every two minutes.


Map Options




Map Legend


Flown Route
Filed Route
Departure Airport
Arrival Airport
Navaid (VOR, NDB)
Fix

Horizontal Profiles

Position Reports

Time Latitude Longitude Heading Altitude Ground
Speed
31-Oct-17 14:56 33.679325 -117.862328 116 65ft 0kts
31-Oct-17 14:57 33.679325 -117.862328 116 65ft 0kts
31-Oct-17 14:58 33.679325 -117.862328 116 65ft 0kts
31-Oct-17 14:59 33.679325 -117.862328 116 65ft 0kts
31-Oct-17 15:00 33.679325 -117.862328 116 65ft 0kts
31-Oct-17 15:01 33.679325 -117.862328 116 65ft 0kts
31-Oct-17 15:02 33.679325 -117.862328 116 65ft 0kts
31-Oct-17 15:03 33.679325 -117.862328 116 65ft 0kts
31-Oct-17 15:04 33.679325 -117.862328 116 65ft 0kts
31-Oct-17 15:05 33.679325 -117.862328 116 65ft 0kts
31-Oct-17 15:06 33.679325 -117.862328 116 65ft 0kts
31-Oct-17 15:07 33.679325 -117.862328 116 65ft 0kts
31-Oct-17 15:08 33.679325 -117.862328 116 65ft 0kts
31-Oct-17 15:09 33.679325 -117.862328 116 65ft 0kts
31-Oct-17 15:10 33.679325 -117.862328 116 65ft 0kts
31-Oct-17 15:11 33.679325 -117.862328 116 65ft 0kts
31-Oct-17 15:12 33.679325 -117.862328 116 65ft 0kts
31-Oct-17 15:13 33.679325 -117.862328 116 65ft 0kts
31-Oct-17 15:14 33.679325 -117.862328 116 65ft 0kts
31-Oct-17 15:15 33.679324 -117.862328 116 65ft 0kts
31-Oct-17 15:16 33.679324 -117.862328 116 65ft 0kts
31-Oct-17 15:17 33.679324 -117.862328 116 65ft 0kts
31-Oct-17 15:18 33.679325 -117.862328 116 65ft 0kts
31-Oct-17 15:19 33.679458 -117.862734 90 65ft 2kts
31-Oct-17 15:20 33.679217 -117.863224 25 65ft 1kts
31-Oct-17 15:21 33.679195 -117.863237 26 65ft 0kts
31-Oct-17 15:22 33.679380 -117.863127 25 65ft 6kts
31-Oct-17 15:23 33.680642 -117.863007 295 65ft 0kts
31-Oct-17 15:24 33.680914 -117.863655 297 65ft 7kts
31-Oct-17 15:25 33.681164 -117.864218 299 65ft 0kts
31-Oct-17 15:26 33.681484 -117.864942 297 65ft 5kts
31-Oct-17 15:27 33.681417 -117.865196 205 65ft 0kts
31-Oct-17 15:28 33.674148 -117.869822 207 70ft 146kts
31-Oct-17 15:29 33.632425 -117.891869 191 3602ft 177kts
31-Oct-17 15:30 33.578161 -117.904010 202 6590ft 234kts
31-Oct-17 15:31 33.517448 -117.952509 214 9802ft 282kts
31-Oct-17 15:32 33.446769 -118.009953 214 12059ft 347kts
31-Oct-17 15:33 33.370731 -118.069110 216 14561ft 368kts
31-Oct-17 15:34 33.341609 -118.171577 279 16907ft 375kts
31-Oct-17 15:35 33.357220 -118.287537 279 19570ft 377kts
31-Oct-17 15:36 33.377619 -118.402332 295 21788ft 382kts
31-Oct-17 15:37 33.449264 -118.493550 314 23842ft 392kts
31-Oct-17 15:38 33.529072 -118.581574 313 25693ft 397kts
31-Oct-17 15:39 33.602418 -118.662824 313 27214ft 401kts
31-Oct-17 15:40 33.684334 -118.753901 312 28719ft 405kts
31-Oct-17 15:41 33.766133 -118.844996 312 30584ft 397kts
31-Oct-17 15:42 33.846282 -118.934509 313 31983ft 398kts
31-Oct-17 15:43 33.928248 -119.026231 313 32019ft 396kts
31-Oct-17 15:44 34.007259 -119.114986 313 32010ft 392kts
31-Oct-17 15:45 34.086462 -119.204144 314 31985ft 392kts
31-Oct-17 15:46 34.158240 -119.285143 314 31986ft 391kts
31-Oct-17 15:47 34.236447 -119.373621 314 31984ft 390kts
31-Oct-17 15:48 34.314552 -119.462229 315 31979ft 389kts
31-Oct-17 15:49 34.392358 -119.550794 315 31978ft 388kts
31-Oct-17 15:50 34.469765 -119.638972 316 31980ft 388kts
31-Oct-17 15:51 34.544343 -119.724367 316 31981ft 388kts
31-Oct-17 15:52 34.622219 -119.813660 316 31982ft 388kts
31-Oct-17 15:53 34.700271 -119.903421 317 31982ft 388kts
31-Oct-17 15:54 34.778112 -119.993208 317 31983ft 388kts
31-Oct-17 15:55 34.855512 -120.082579 318 32014ft 389kts
31-Oct-17 15:56 34.933499 -120.172985 318 32012ft 390kts
31-Oct-17 15:57 35.011343 -120.263472 319 32003ft 391kts
31-Oct-17 15:58 35.089373 -120.354421 319 31979ft 392kts
31-Oct-17 15:59 35.162243 -120.439586 320 31986ft 394kts
31-Oct-17 16:00 35.241039 -120.531919 324 31964ft 397kts
31-Oct-17 16:01 35.322429 -120.627474 326 31924ft 424kts
31-Oct-17 16:02 35.404182 -120.723806 325 32008ft 456kts
31-Oct-17 16:03 35.495820 -120.829450 330 32036ft 450kts
31-Oct-17 16:04 35.594215 -120.920950 332 32036ft 449kts
31-Oct-17 16:05 35.692589 -121.012500 331 32031ft 450kts
31-Oct-17 16:06 35.791494 -121.104734 332 32044ft 453kts
31-Oct-17 16:07 35.890752 -121.197691 332 32065ft 452kts
31-Oct-17 16:08 35.989713 -121.290661 332 32038ft 452kts
31-Oct-17 16:09 36.089409 -121.381182 337 31990ft 446kts
31-Oct-17 16:10 36.154183 -121.431603 337 31997ft 447kts
31-Oct-17 16:11 36.257273 -121.512286 336 27926ft 450kts
31-Oct-17 16:12 36.358398 -121.591608 335 24360ft 429kts
31-Oct-17 16:13 36.446661 -121.661055 335 23260ft 395kts
31-Oct-17 16:14 36.534593 -121.730445 334 21916ft 365kts
31-Oct-17 16:15 36.618593 -121.796799 333 19910ft 356kts
31-Oct-17 16:16 36.700691 -121.861854 332 17876ft 352kts
31-Oct-17 16:17 36.794953 -121.903619 350 16228ft 360kts
31-Oct-17 16:18 36.888047 -121.932971 350 14451ft 342kts
31-Oct-17 16:19 36.978381 -121.963480 346 12351ft 337kts
31-Oct-17 16:20 37.066326 -121.997800 345 10373ft 326kts
31-Oct-17 16:21 37.136753 -122.025414 345 9561ft 296kts
31-Oct-17 16:22 37.212770 -122.055168 344 8208ft 282kts
31-Oct-17 16:23 37.285277 -122.083604 343 6793ft 273kts
31-Oct-17 16:24 37.355489 -122.106757 349 5406ft 255kts
31-Oct-17 16:25 37.420441 -122.121237 349 4027ft 222kts
31-Oct-17 16:26 37.472477 -122.132879 349 3901ft 173kts
31-Oct-17 16:27 37.512324 -122.163449 324 3052ft 169kts
31-Oct-17 16:28 37.547508 -122.201525 305 2701ft 170kts
31-Oct-17 16:29 37.570201 -122.253630 296 1824ft 167kts
31-Oct-17 16:30 37.589320 -122.299332 296 1059ft 130kts
31-Oct-17 16:31 37.605494 -122.338060 296 382ft 122kts
31-Oct-17 16:32 37.619629 -122.371680 297 22ft 54kts
31-Oct-17 16:33 37.622288 -122.380907 274 22ft 0kts
31-Oct-17 16:34 37.621117 -122.383256 184 22ft 9kts
31-Oct-17 16:35 37.618375 -122.382950 223 22ft 7kts
31-Oct-17 16:36 37.617717 -122.382854 135 22ft 0kts
31-Oct-17 16:37 37.617717 -122.382855 135 22ft 0kts
31-Oct-17 16:38 37.617717 -122.382855 135 22ft 0kts
31-Oct-17 16:39 37.617717 -122.382855 135 22ft 0kts
31-Oct-17 16:40 37.617717 -122.382855 135 22ft 0kts
31-Oct-17 16:41 37.617717 -122.382855 135 22ft 0kts
31-Oct-17 16:42 37.617717 -122.382855 135 22ft 0kts
31-Oct-17 16:43 37.617717 -122.382855 135 22ft 0kts

Navigation Log

Ident Type
Flight plan parsing failed, navigation log unavailable